Have a Safe July 4th! 

Flight Track Log - Related Links

Times and Time Zones

All times are in EDT time to prevent confusion due to time zone crossing. See the N717AN flight status page for this flight to view local times or setup timezone preferences in your user account.

Time Position Orientation Groundspeed Altitude Reporting Facility
EDT Latitude Longitude Course Direction KTS MPH feet Rate Location/Type
Sat 10:32:40 PM 40.6350 -73.7870 323° Northwest 150 173  Level FlightAware ADS-B
Sat 10:33:01 PM 40.6440 -73.8060 302° West 192 221 100 1,297 Climbing FlightAware ADS-B
Sat 10:33:17 PM 40.6490 -73.8230 291° West 194 223 800 2,700 Climbing FlightAware ADS-B
Sat 10:33:21 PM 40.6490 -73.8280 270° West 196 226 1,000 1,929 Climbing FlightAware ADS-B
Sat 10:33:45 PM 40.6400 -73.8570 248° West 219 252 1,700 1,636 Climbing FlightAware ADS-B
Sat 10:34:05 PM 40.6250 -73.8770 225° Southwest 247 284 2,200 1,714 Climbing FlightAware ADS-B
Sat 10:34:13 PM 40.6170 -73.8840 214° Southwest 255 293 2,500 2,500 Climbing FlightAware ADS-B
Sat 10:34:17 PM 40.6130 -73.8870 210° Southwest 257 296 2,700 2,500 Climbing FlightAware ADS-B
Sat 10:34:25 PM 40.6030 -73.8900 193° South 264 304 3,000 2,919 Climbing FlightAware ADS-B
Sat 10:34:54 PM 40.5720 -73.8750 160° South 258 297 4,500 2,919 Climbing FlightAware ADS-B
Sat 10:35:02 PM 40.5670 -73.8680 133° Southeast 258 297 4,800 2,769 Climbing FlightAware ADS-B
Sat 10:35:07 PM 40.5640 -73.8600 116° Southeast 257 296 5,100 4,000 Climbing FlightAware ADS-B
Sat 10:35:14 PM 40.5610 -73.8480 108° East 254 292 5,600 4,000 Climbing FlightAware ADS-B
Sat 10:35:22 PM 40.5590 -73.8350 101° East 254 292 6,100 3,086 Climbing FlightAware ADS-B
Sat 10:35:49 PM 40.5620 -73.7920 85° East 265 305 7,400 2,681 Climbing FlightAware ADS-B
Sat 10:36:09 PM 40.5650 -73.7590 83° East 279 321 8,200 2,800 Climbing FlightAware ADS-B
Sat 10:36:34 PM 40.5690 -73.7180 83° East 282 325 9,500 2,947 Climbing FlightAware ADS-B
Sat 10:37:06 PM 40.5750 -73.6620 82° East 297 342 11,000 2,381 Climbing FlightAware ADS-B
Sat 10:37:37 PM 40.5820 -73.6040 81° East 320 368 12,000 2,381 Climbing FlightAware ADS-B
Sat 10:38:09 PM 40.5890 -73.5420 82° East 327 376 13,500 3,000 Climbing FlightAware ADS-B
Sat 10:38:17 PM 40.5878 -73.5483 256° West 329 379 14,000 3,000 Climbing FlightAware ADS-B (KSNC)
Sat 10:38:53 PM 40.5985 -73.4546 81° East 334 384 15,700 2,591 Climbing FlightAware ADS-B (KSNC)
Sat 10:39:45 PM 40.6103 -73.3466 82° East 350 403 17,800 2,427 Climbing FlightAware ADS-B (KSNC)
Sat 10:40:22 PM 40.6189 -73.2668 82° East 360 414 19,300 2,338 Climbing FlightAware ADS-B (KSNC)
Sat 10:41:02 PM 40.6283 -73.1791 82° East 369 425 20,800 2,100 Climbing FlightAware ADS-B (KSNC)
Sat 10:41:42 PM 40.6378 -73.0895 82° East 379 436 22,100 2,053 Climbing FlightAware ADS-B (KSNC)
Sat 10:42:18 PM 40.6460 -73.0080 82° East 383 441 23,400 2,195 Climbing FlightAware ADS-B
Sat 10:42:23 PM 40.6469 -73.0038 74° East 385 443 23,600 2,000 Climbing FlightAware ADS-B (KSNC)
Sat 10:42:54 PM 40.6545 -72.9299 82° East 390 449 24,600 1,905 Climbing FlightAware ADS-B (KSNC)
Sat 10:43:26 PM 40.6630 -72.8480 82° East 395 455 25,600 1,814 Climbing FlightAware ADS-B
Sat 10:43:37 PM 40.6658 -72.8215 82° East 398 458 25,900 1,610 Climbing FlightAware ADS-B (KSNC)
Sat 10:44:07 PM 40.6733 -72.7484 82° East 404 465 26,700 1,600 Climbing FlightAware ADS-B (KSNC)
Sat 10:44:37 PM 40.6808 -72.6760 82° East 409 471 27,500 1,574 Climbing FlightAware ADS-B (KSNC)
Sat 10:45:08 PM 40.6888 -72.5983 82° East 416 479 28,300 1,548 Climbing FlightAware ADS-B (KSNC)
Sat 10:45:39 PM 40.6964 -72.5216 82° East 420 483 29,100 1,636 Climbing FlightAware ADS-B (KSNC)
Sat 10:46:14 PM 40.7054 -72.4315 82° East 422 486 30,100 1,500 Climbing FlightAware ADS-B (KSNC)
Sat 10:46:55 PM 40.7151 -72.3339 82° East 429 494 31,000 701 Climbing FlightAware ADS-B (KSNC)
Sat 10:47:31 PM 40.7253 -72.2311 83° East 448 516 31,000  Level FlightAware ADS-B (KSNC)
Sat 10:48:05 PM 40.7344 -72.1385 83° East 454 522 31,000  Level FlightAware ADS-B (KSNC)
Sat 10:48:35 PM 40.7418 -72.0616 83° East 457 526 31,000  Level FlightAware ADS-B (KSNC)
Sat 10:49:15 PM 40.7530 -71.9480 83° East 458 527 31,000  Level FlightAware ADS-B
Sat 10:49:24 PM 40.7552 -71.9229 84° East 459 528 31,000  Level FlightAware ADS-B (KSNC)
Sat 10:50:13 PM 40.7588 -71.8850 83° East 460 529 31,000  Level FlightAware ADS-B (KSNC)
Sat 10:51:02 PM 40.7810 -71.6520 83° East 458 527 31,000  Level FlightAware ADS-B
Sat 10:51:07 PM 40.7805 -71.6528 230° Southwest 458 527 31,000  Level FlightAware ADS-B (KSNC)
Sat 10:52:11 PM 40.7980 -71.4580 83° East 459 528 31,000  Level FlightAware ADS-B
Sat 10:52:48 PM 40.8080 -71.3560 83° East 459 528 31,000  Level FlightAware ADS-B
Sat 10:53:18 PM 40.8150 -71.2700 84° East 460 529 31,000  Level FlightAware ADS-B
Sat 10:53:57 PM 40.8250 -71.1630 83° East 459 528 31,000  Level FlightAware ADS-B
Sat 10:54:30 PM 40.8330 -71.0700 83° East 458 527 31,000  Level FlightAware ADS-B
Sat 10:55:04 PM 40.8410 -70.9760 84° East 457 526 31,000  Level FlightAware ADS-B
Sat 10:55:41 PM 40.8500 -70.8740 83° East 456 525 31,000  Level FlightAware ADS-B
Sat 10:56:18 PM 40.8590 -70.7740 83° East 457 526 31,000  Level FlightAware ADS-B
Sat 10:56:49 PM 40.8660 -70.6880 84° East 457 526 31,000  Level FlightAware ADS-B
Sat 10:57:26 PM 40.8750 -70.5870 83° East 456 525 31,000  Level FlightAware ADS-B
Sat 10:58:00 PM 40.8820 -70.4910 84° East 455 524 31,000  Level FlightAware ADS-B
Sat 10:58:36 PM 40.8910 -70.3890 83° East 455 524 31,000  Level FlightAware ADS-B
Sat 10:59:09 PM 40.8980 -70.2990 84° East 456 525 31,000  Level FlightAware ADS-B
Sat 10:59:44 PM 40.9050 -70.2070 84° East 456 525 31,000  Level FlightAware ADS-B
Sat 11:00:25 PM 40.9150 -70.1060 83° East 456 525 31,000  Level FlightAware ADS-B
Sat 11:01:01 PM 40.9220 -70.0220 84° East 456 525 31,000  Level FlightAware ADS-B
Sat 11:01:37 PM 40.9300 -69.9370 83° East 456 525 31,000  Level FlightAware ADS-B
Sat 11:02:13 PM 40.9380 -69.8520 83° East 456 525 31,000  Level FlightAware ADS-B
Sat 11:02:49 PM 40.9460 -69.7670 83° East 456 525 31,000  Level FlightAware ADS-B
Sat 11:03:25 PM 40.9540 -69.6820 83° East 456 525 31,000  Level FlightAware ADS-B
Sat 11:04:01 PM 40.9620 -69.5970 83° East 456 525 31,000  Level FlightAware ADS-B
Sat 11:04:37 PM 40.9700 -69.5130 83° East 456 525 31,000  Level FlightAware ADS-B
Sat 11:05:13 PM 40.9770 -69.4280 84° East 456 525 31,000  Level FlightAware ADS-B
Sat 11:05:49 PM 40.9850 -69.3430 83° East 456 525 31,000  Level FlightAware ADS-B
Sat 11:06:23 PM 40.9930 -69.2630 82° East 456 525 31,000  Level FlightAware ADS-B
Sat 11:06:59 PM 41.0010 -69.1780 83° East 456 525 31,000  Level FlightAware ADS-B
Sat 11:07:35 PM 41.0080 -69.0930 84° East 456 525 31,000  Level FlightAware ADS-B
Sat 11:08:11 PM 41.0160 -69.0080 83° East 456 525 31,000  Level FlightAware ADS-B
Sat 11:08:47 PM 41.0240 -68.9230 83° East 456 525 31,000  Level FlightAware ADS-B
Sat 11:09:23 PM 41.0320 -68.8380 83° East 456 525 31,000 2,108 Level FlightAware ADS-B
Sat 11:10:38 PM 41.0356 -68.3878 83° East 463 533 34,900 1,721 Climbing New York Center
Sat 11:11:39 PM 41.0444 -68.2142 86° East 463 533 34,900 51 Level New York Center
Sat 11:12:36 PM 41.0575 -68.0431 84° East 463 533 35,000 51 Climbing New York Center
Sat 11:13:37 PM 41.0681 -67.8719 85° East 463 533 35,000 -50 Level New York Center
Sat 11:14:36 PM 41.0764 -67.6983 86° East 463 533 34,900 -50 Descending New York Center
Sat 11:15:37 PM 41.0864 -67.5272 86° East 463 533 34,900  Level New York Center
Sat 11:16:36 PM 41.0964 -67.3561 86° East 463 533 34,900 50 Level New York Center
Sat 11:17:37 PM 41.1061 -67.1850 86° East 463 533 35,000 45 Climbing New York Center
Sat 11:18:50 PM 41.1167 -67.0000 78° East 471 542 35,000  Level New York Oceanic (ODAPS)
Sat 11:22:51 PM 47.2260 -65.5830 86° East 35,000  Level FlightAware ADS-B
Sat 11:23:31 PM 47.3450 -65.4380 40° Northeast 777 894 35,000  Level FlightAware ADS-B
Sat 11:24:26 PM 41.2680 -66.0180 78° East 467 537 35,000  Level FlightAware ADS-B
Sat 11:25:23 PM 41.2890 -65.8770 79° East 467 537 35,000  Level FlightAware ADS-B
Sat 11:26:00 PM 41.3020 -65.7880 79° East 467 537 35,000  Level FlightAware ADS-B
Sat 11:26:36 PM 41.3140 -65.7020 79° East 467 537 35,000  Level FlightAware ADS-B
Sat 11:27:01 PM 41.3167 -65.6833 79° East 474 545 35,000  Level New York Oceanic (ODAPS)
Sat 11:27:12 PM 41.3270 -65.6150 79° East 467 537 35,000  Level FlightAware ADS-B
Sat 11:27:48 PM 41.3400 -65.5290 79° East 467 537 35,000  Level FlightAware ADS-B
Sat 11:28:03 PM 47.4580 -64.5690 North 35,000  Level FlightAware ADS-B
Sat 11:28:08 PM 47.4620 -64.5420 78° East 469 540 35,000  Level FlightAware ADS-B
Sat 11:28:54 PM 41.3780 -65.2600 185° South 470 541 35,000  Level FlightAware ADS-B
Sat 11:29:28 PM 41.3920 -65.1670 79° East 471 542 35,000  Level FlightAware ADS-B
Sat 11:30:04 PM 41.4040 -65.0830 79° East 471 542 35,000  Level FlightAware ADS-B
Sat 11:30:43 PM 41.4220 -64.9550 79° East 473 544 35,000  Level FlightAware ADS-B
Sat 11:31:13 PM 41.4340 -64.8690 79° East 474 545 35,000  Level FlightAware ADS-B
Sat 11:32:05 PM 41.4510 -64.7390 80° East 475 547 35,000  Level FlightAware ADS-B
Sat 11:32:53 PM 41.4730 -64.5850 80° East 477 549 35,000  Level FlightAware ADS-B
Sat 11:33:00 PM 41.4849 -64.4882 80° East 474 545 35,000  Level FlightAware Transoceanic
Sat 11:33:50 PM 41.4930 -64.4350 80° East 478 550 35,000  Level FlightAware ADS-B
Sat 11:34:26 PM 41.5040 -64.3460 81° East 478 550 35,000  Level FlightAware ADS-B
Sat 11:35:02 PM 41.5160 -64.2570 80° East 478 550 35,000  Level FlightAware ADS-B
Sat 11:35:38 PM 41.5280 -64.1680 80° East 478 550 35,000  Level FlightAware ADS-B
Sat 11:36:14 PM 41.5400 -64.0790 80° East 478 550 35,000  Level FlightAware ADS-B
Sat 11:36:49 PM 41.5640 -63.8930 80° East 484 557 35,000  Level FlightAware ADS-B
Sat 11:37:19 PM 41.5760 -63.8010 80° East 485 558 35,000  Level FlightAware ADS-B
Sat 11:38:10 PM 41.5940 -63.6680 80° East 486 559 35,000  Level FlightAware ADS-B
Sat 11:38:44 PM 41.6080 -63.5540 81° East 487 560 35,000  Level FlightAware ADS-B
Sat 11:39:19 PM 41.6220 -63.4450 80° East 488 562 35,000  Level FlightAware ADS-B
Sat 11:39:54 PM 41.6340 -63.3440 81° East 489 563 35,000  Level FlightAware ADS-B
Sat 11:40:24 PM 41.6500 -63.2667 81° East 487 560 35,000  Level New York Oceanic (ODAPS)
Sat 11:40:29 PM 41.6470 -63.2450 80° East 488 562 35,000  Level FlightAware ADS-B
Sat 11:41:05 PM 41.6600 -63.1340 81° East 490 564 35,000  Level FlightAware ADS-B
Sat 11:41:50 PM 41.6740 -63.0180 81° East 490 564 35,000  Level FlightAware ADS-B
Sat 11:42:26 PM 41.6880 -62.9000 81° East 493 567 35,000  Level FlightAware ADS-B
Sat 11:43:05 PM 41.7040 -62.7740 80° East 493 567 35,000  Level FlightAware ADS-B
Sat 11:43:42 PM 41.7150 -62.6790 81° East 493 567 35,000  Level FlightAware ADS-B
Sat 11:44:18 PM 41.7260 -62.5870 81° East 493 567 35,000  Level FlightAware ADS-B
Sat 11:45:23 PM 41.7520 -62.3670 81° East 495 570 35,000  Level FlightAware ADS-B
Sat 11:46:00 PM 41.7705 -62.2390 81° East 487 560 35,000  Level FlightAware Transoceanic
Sat 11:46:02 PM 41.7630 -62.2670 81° East 495 570 35,000  Level FlightAware ADS-B
Sat 11:46:38 PM 41.7740 -62.1740 81° East 495 570 35,000  Level FlightAware ADS-B
Sat 11:47:15 PM 41.7860 -62.0780 80° East 495 570 35,000  Level FlightAware ADS-B
Sat 11:47:51 PM 41.7970 -61.9860 81° East 495 570 35,000  Level FlightAware ADS-B
Sat 11:48:27 PM 41.8080 -61.8930 81° East 495 570 35,000  Level FlightAware ADS-B
Sat 11:49:34 PM 41.8390 -61.5870 82° East 503 579 35,000  Level FlightAware ADS-B
Sat 11:50:19 PM 41.8510 -61.4740 82° East 503 579 35,000  Level FlightAware ADS-B
Sat 11:50:59 PM 41.8650 -61.3420 82° East 504 580 35,000  Level FlightAware ADS-B
Sat 11:51:51 PM 41.8830 -61.1780 82° East 505 581 35,000  Level FlightAware ADS-B
Sat 11:52:27 PM 41.8930 -61.0830 82° East 505 581 35,000  Level FlightAware ADS-B
Sat 11:53:03 PM 41.9030 -60.9880 82° East 505 581 35,000  Level FlightAware ADS-B
Sat 11:53:47 PM 41.9180 -60.8380 82° East 506 582 35,000  Level FlightAware ADS-B
Sat 11:54:18 PM 41.9333 -60.7333 83° East 502 578 35,000  Level New York Oceanic (ODAPS)
Sat 11:54:23 PM 41.9280 -60.7430 82° East 506 582 35,000  Level FlightAware ADS-B
Sat 11:55:00 PM 41.9380 -60.6450 82° East 506 582 35,000  Level FlightAware ADS-B
Sat 11:55:36 PM 41.9480 -60.5490 82° East 506 582 35,000  Level FlightAware ADS-B
Sat 11:56:12 PM 41.9580 -60.4540 82° East 506 582 35,000  Level FlightAware ADS-B
Sat 11:56:48 PM 41.9680 -60.3580 82° East 506 582 35,000  Level FlightAware ADS-B
Sat 11:57:24 PM 41.9780 -60.2630 82° East 506 582 35,000  Level FlightAware ADS-B
Sat 11:58:01 PM 41.9880 -60.1650 82° East 506 582 35,000  Level FlightAware ADS-B
Sat 11:58:28 PM 42.0000 -60.0000 79° East 508 585 35,000  Level New York Oceanic (ODAPS)
Sat 11:58:37 PM 41.9980 -60.0700 82° East 506 582 35,000  Level FlightAware ADS-B
Sat 11:59:13 PM 42.0080 -59.9740 82° East 506 582 35,000  Level FlightAware ADS-B
Sat 11:59:49 PM 42.0180 -59.8790 83° East 506 582 35,000  Level FlightAware ADS-B
Sun 12:00:26 AM 42.0280 -59.7800 82° East 506 582 35,000  Level FlightAware ADS-B
Sun 12:01:02 AM 42.0380 -59.6850 82° East 506 582 35,000  Level FlightAware ADS-B
Sun 12:01:38 AM 42.0480 -59.5890 82° East 506 582 35,000  Level FlightAware ADS-B
Sun 12:02:14 AM 42.0580 -59.4940 82° East 506 582 35,000  Level FlightAware ADS-B
Sun 12:02:50 AM 42.0680 -59.3980 82° East 506 582 35,000  Level FlightAware ADS-B
Sun 12:04:00 AM 42.1565 -58.8856 80° East 508 585 35,000  Level FlightAware Transoceanic
Sun 12:05:00 AM 42.1815 -58.6994 80° East 508 585 35,000  Level FlightAware Transoceanic
Sun 12:06:00 AM 42.2063 -58.5130 80° East 508 585 35,000  Level FlightAware Transoceanic
Sun 12:07:00 AM 42.2307 -58.3264 80° East 508 585 35,000  Level FlightAware Transoceanic
Sun 12:08:00 AM 42.2548 -58.1398 80° East 508 585 35,000  Level FlightAware Transoceanic
Sun 12:08:09 AM 42.2500 -58.1333 80° East 517 595 35,000  Level New York Oceanic (ODAPS)
Sun 12:09:00 AM 42.2786 -57.9529 80° East 508 585 35,000  Level FlightAware Transoceanic
Sun 12:10:00 AM 42.3022 -57.7659 80° East 508 585 35,000  Level FlightAware Transoceanic
Sun 12:11:00 AM 42.3254 -57.5788 81° East 508 585 35,000  Level FlightAware Transoceanic
Sun 12:12:00 AM 42.3483 -57.3916 81° East 508 585 35,000  Level FlightAware Transoceanic
Sun 12:13:00 AM 42.3709 -57.2042 81° East 508 585 35,000  Level FlightAware Transoceanic
Sun 12:14:00 AM 42.3922 -56.9845 81° East 517 595 35,000  Level FlightAware Transoceanic
Sun 12:15:00 AM 42.4147 -56.7925 81° East 517 595 35,000  Level FlightAware Transoceanic
Sun 12:16:00 AM 42.4370 -56.6004 81° East 517 595 35,000  Level FlightAware Transoceanic
Sun 12:17:00 AM 42.4589 -56.4081 81° East 517 595 35,000  Level FlightAware Transoceanic
Sun 12:18:00 AM 42.4806 -56.2157 81° East 517 595 35,000  Level FlightAware Transoceanic
Sun 12:19:00 AM 42.5019 -56.0232 82° East 517 595 35,000  Level FlightAware Transoceanic
Sun 12:20:00 AM 42.5228 -55.8306 82° East 517 595 35,000  Level FlightAware Transoceanic
Sun 12:21:00 AM 42.5435 -55.6378 82° East 517 595 35,000  Level FlightAware Transoceanic
Sun 12:22:00 AM 42.5638 -55.4449 82° East 517 595 35,000  Level FlightAware Transoceanic
Sun 12:22:01 AM 42.5667 -55.4500 82° East 528 608 35,000  Level New York Oceanic (ODAPS)
Sun 12:23:00 AM 42.5838 -55.2519 82° East 517 595 35,000  Level FlightAware Transoceanic
Sun 12:24:00 AM 42.6035 -55.0587 82° East 517 595 35,000  Level FlightAware Transoceanic
Sun 12:25:00 AM 42.6228 -54.8655 82° East 517 595 35,000  Level FlightAware Transoceanic
Sun 12:26:00 AM 42.6418 -54.6721 82° East 517 595 35,000  Level FlightAware Transoceanic
Sun 12:27:00 AM 42.6605 -54.4786 83° East 517 595 35,000  Level FlightAware Transoceanic
Sun 12:28:00 AM 42.6852 -54.2458 83° East 528 608 35,000  Level FlightAware Transoceanic
Sun 12:29:00 AM 42.7038 -54.0447 83° East 528 608 35,000  Level FlightAware Transoceanic
Sun 12:30:00 AM 42.7220 -53.8434 83° East 528 608 35,000  Level FlightAware Transoceanic
Sun 12:31:00 AM 42.7398 -53.6421 83° East 528 608 35,000  Level FlightAware Transoceanic
Sun 12:32:00 AM 42.7573 -53.4406 83° East 528 608 35,000  Level FlightAware Transoceanic
Sun 12:33:00 AM 42.7744 -53.2390 83° East 528 608 35,000  Level FlightAware Transoceanic
Sun 12:34:00 AM 42.7912 -53.0373 84° East 528 608 35,000  Level FlightAware Transoceanic
Sun 12:35:00 AM 42.8076 -52.8355 84° East 528 608 35,000  Level FlightAware Transoceanic
Sun 12:35:54 AM 42.8167 -52.7833 84° East 509 586 35,000  Level New York Oceanic (ODAPS)
Sun 12:36:00 AM 42.8236 -52.6336 84° East 528 608 35,000  Level FlightAware Transoceanic
Sun 12:37:00 AM 42.8393 -52.4315 84° East 528 608 35,000  Level FlightAware Transoceanic
Sun 12:38:00 AM 42.8547 -52.2294 84° East 528 608 35,000  Level FlightAware Transoceanic
Sun 12:39:00 AM 42.8697 -52.0272 84° East 528 608 35,000  Level FlightAware Transoceanic
Sun 12:40:00 AM 42.8843 -51.8249 84° East 528 608 35,000  Level FlightAware Transoceanic
Sun 12:41:00 AM 42.8986 -51.6225 85° East 528 608 35,000  Level FlightAware Transoceanic
Sun 12:42:00 AM 42.9035 -51.5925 85° East 509 586 35,000  Level FlightAware Transoceanic
Sun 12:43:00 AM 42.9168 -51.3937 85° East 509 586 35,000  Level FlightAware Transoceanic
Sun 12:44:00 AM 42.9297 -51.1949 85° East 509 586 35,000  Level FlightAware Transoceanic
Sun 12:45:00 AM 42.9423 -50.9959 85° East 509 586 35,000  Level FlightAware Transoceanic
Sun 12:46:00 AM 42.9545 -50.7969 85° East 509 586 35,000  Level FlightAware Transoceanic
Sun 12:47:00 AM 42.9664 -50.5978 85° East 509 586 35,000  Level FlightAware Transoceanic
Sun 12:48:00 AM 42.9779 -50.3986 86° East 509 586 35,000  Level FlightAware Transoceanic
Sun 12:49:00 AM 42.9891 -50.1993 86° East 509 586 35,000  Level FlightAware Transoceanic
Sun 12:49:44 AM 43.0000 -50.1000 90° East 496 571 35,000  Level New York Oceanic (ODAPS)
Sun 12:50:00 AM 43.0000 -50.0000 71° East 509 586 35,000  Level FlightAware Transoceanic
Sun 12:50:35 AM 43.0000 -50.0000 71° East 509 586 35,000  Level New York Oceanic (ODAPS)
Sun 12:51:00 AM 43.0456 -49.8178 71° East 509 586 35,000  Level FlightAware Transoceanic
Sun 12:52:00 AM 43.0910 -49.6354 71° East 509 586 35,000  Level FlightAware Transoceanic
Sun 12:53:00 AM 43.1360 -49.4527 71° East 509 586 35,000  Level FlightAware Transoceanic
Sun 12:54:00 AM 43.1808 -49.2698 72° East 509 586 35,000  Level FlightAware Transoceanic
Sun 12:55:00 AM 43.2253 -49.0866 72° East 509 586 35,000  Level FlightAware Transoceanic
Sun 12:56:00 AM 43.2694 -48.9031 72° East 509 586 35,000  Level FlightAware Transoceanic
Sun 12:57:00 AM 43.3133 -48.7193 72° East 509 586 35,000  Level FlightAware Transoceanic
Sun 12:58:00 AM 43.3569 -48.5353 72° East 509 586 35,000  Level FlightAware Transoceanic
Sun 12:59:00 AM 43.4002 -48.3510 72° East 509 586 35,000  Level FlightAware Transoceanic
Sun 01:00:00 AM 43.4432 -48.1665 72° East 509 586 35,000  Level FlightAware Transoceanic
Sun 01:01:00 AM 43.4859 -47.9817 72° East 509 586 35,000  Level FlightAware Transoceanic
Sun 01:02:00 AM 43.5283 -47.7966 73° East 509 586 35,000  Level FlightAware Transoceanic
Sun 01:03:00 AM 43.5704 -47.6113 73° East 509 586 35,000  Level FlightAware Transoceanic
Sun 01:03:38 AM 43.5667 -47.6000 73° East 491 565 35,000  Level New York Oceanic (ODAPS)
Sun 01:04:00 AM 43.6122 -47.4257 73° East 509 586 35,000  Level FlightAware Transoceanic
Sun 01:05:00 AM 43.6537 -47.2398 73° East 509 586 35,000  Level FlightAware Transoceanic
Sun 01:06:00 AM 43.6949 -47.0537 73° East 509 586 35,000  Level FlightAware Transoceanic
Sun 01:07:00 AM 43.7358 -46.8674 73° East 509 586 35,000  Level FlightAware Transoceanic
Sun 01:08:00 AM 43.7764 -46.6808 73° East 509 586 35,000  Level FlightAware Transoceanic
Sun 01:09:00 AM 43.8019 -46.5377 73° East 491 565 35,000  Level FlightAware Transoceanic
Sun 01:10:00 AM 43.8402 -46.3598 73° East 491 565 35,000  Level FlightAware Transoceanic
Sun 01:11:00 AM 43.8782 -46.1817 74° East 491 565 35,000  Level FlightAware Transoceanic
Sun 01:12:00 AM 43.9159 -46.0034 74° East 491 565 35,000  Level FlightAware Transoceanic
Sun 01:13:00 AM 43.9533 -45.8249 74° East 491 565 35,000  Level FlightAware Transoceanic
Sun 01:14:00 AM 43.9904 -45.6461 74° East 491 565 35,000  Level FlightAware Transoceanic
Sun 01:15:00 AM 44.0273 -45.4671 74° East 491 565 35,000  Level FlightAware Transoceanic
Sun 01:16:00 AM 44.0639 -45.2879 74° East 491 565 35,000  Level FlightAware Transoceanic
Sun 01:17:00 AM 44.1002 -45.1085 74° East 491 565 35,000 645 Level FlightAware Transoceanic
Sun 01:17:33 AM 44.1000 -45.1333 74° East 504 580 36,000  Climbing New York Oceanic (ODAPS)
Sun 01:18:00 AM 44.1362 -44.9289 74° East 491 565 35,000 -690 Descending FlightAware Transoceanic
Sun 01:19:00 AM 44.1719 -44.7490 75° East 491 565 35,000  Level FlightAware Transoceanic
Sun 01:20:00 AM 44.2074 -44.5689 75° East 491 565 35,000  Level FlightAware Transoceanic
Sun 01:21:00 AM 44.2425 -44.3886 75° East 491 565 35,000  Level FlightAware Transoceanic
Sun 01:22:00 AM 44.2774 -44.2081 75° East 491 565 35,000 500 Level FlightAware Transoceanic
Sun 01:23:00 AM 44.3198 -44.0066 75° East 504 580 36,000 500 Climbing FlightAware Transoceanic
Sun 01:24:00 AM 44.3553 -43.8180 75° East 504 580 36,000  Level FlightAware Transoceanic
Sun 01:25:00 AM 44.3905 -43.6291 75° East 504 580 36,000  Level FlightAware Transoceanic
Sun 01:26:00 AM 44.4255 -43.4401 76° East 504 580 36,000  Level FlightAware Transoceanic
Sun 01:27:00 AM 44.4601 -43.2508 76° East 504 580 36,000  Level FlightAware Transoceanic
Sun 01:28:00 AM 44.4944 -43.0613 76° East 504 580 36,000  Level FlightAware Transoceanic
Sun 01:29:00 AM 44.5284 -42.8715 76° East 504 580 36,000  Level FlightAware Transoceanic
Sun 01:30:00 AM 44.5620 -42.6816 76° East 504 580 36,000  Level FlightAware Transoceanic
Sun 01:31:00 AM 44.5954 -42.4914 76° East 504 580 36,000  Level FlightAware Transoceanic
Sun 01:32:00 AM 44.6284 -42.3010 76° East 504 580 36,000  Level FlightAware Transoceanic
Sun 01:33:00 AM 44.6612 -42.1104 77° East 504 580 36,000  Level FlightAware Transoceanic
Sun 01:34:00 AM 44.6936 -41.9196 77° East 504 580 36,000  Level FlightAware Transoceanic
Sun 01:35:00 AM 44.7256 -41.7286 77° East 504 580 36,000  Level FlightAware Transoceanic
Sun 01:36:00 AM 44.7574 -41.5373 77° East 504 580 36,000  Level FlightAware Transoceanic
Sun 01:37:00 AM 44.7889 -41.3459 77° East 504 580 36,000  Level FlightAware Transoceanic
Sun 01:38:00 AM 44.8200 -41.1542 77° East 504 580 36,000  Level FlightAware Transoceanic
Sun 01:39:00 AM 44.8508 -40.9623 77° East 504 580 36,000  Level FlightAware Transoceanic
Sun 01:40:00 AM 44.8813 -40.7703 77° East 504 580 36,000  Level FlightAware Transoceanic
Sun 01:41:00 AM 44.9114 -40.5780 78° East 504 580 36,000  Level FlightAware Transoceanic
Sun 01:42:00 AM 44.9413 -40.3855 78° East 504 580 36,000  Level FlightAware Transoceanic
Sun 01:43:00 AM 44.9708 -40.1929 78° East 504 580 36,000  Level FlightAware Transoceanic
Sun 01:44:00 AM 45.0000 -40.0000 78° East 504 580 36,000  Level FlightAware Transoceanic
Sun 01:45:00 AM 45.0290 -39.7999 78° East 504 580 36,000  Level FlightAware Transoceanic
Sun 01:46:00 AM 45.0577 -39.5996 79° East 504 580 36,000  Level FlightAware Transoceanic
Sun 01:47:00 AM 45.0860 -39.3992 79° East 504 580 36,000  Level FlightAware Transoceanic
Sun 01:48:00 AM 45.1140 -39.1985 79° East 504 580 36,000  Level FlightAware Transoceanic
Sun 01:49:00 AM 45.1417 -38.9976 79° East 504 580 36,000  Level FlightAware Transoceanic
Sun 01:50:00 AM 45.1689 -38.7965 79° East 504 580 36,000  Level FlightAware Transoceanic
Sun 01:51:00 AM 45.1959 -38.5953 79° East 504 580 36,000  Level FlightAware Transoceanic
Sun 01:52:00 AM 45.2224 -38.3938 79° East 504 580 36,000  Level FlightAware Transoceanic
Sun 01:53:00 AM 45.2486 -38.1922 80° East 504 580 36,000  Level FlightAware Transoceanic
Sun 01:54:00 AM 45.2745 -37.9903 80° East 504 580 36,000  Level FlightAware Transoceanic
Sun 01:55:00 AM 45.3000 -37.7883 80° East 504 580 36,000  Level FlightAware Transoceanic
Sun 01:56:00 AM 45.3252 -37.5862 80° East 504 580 36,000  Level FlightAware Transoceanic
Sun 01:57:00 AM 45.3499 -37.3838 80° East 504 580 36,000  Level FlightAware Transoceanic
Sun 01:58:00 AM 45.3744 -37.1813 80° East 504 580 36,000  Level FlightAware Transoceanic
Sun 01:59:00 AM 45.3985 -36.9785 80° East 504 580 36,000  Level FlightAware Transoceanic
Sun 02:00:00 AM 45.4222 -36.7757 81° East 504 580 36,000  Level FlightAware Transoceanic
Sun 02:01:00 AM 45.4455 -36.5726 81° East 504 580 36,000  Level FlightAware Transoceanic
Sun 02:02:00 AM 45.4685 -36.3694 81° East 504 580 36,000  Level FlightAware Transoceanic
Sun 02:03:00 AM 45.4912 -36.1660 81° East 504 580 36,000  Level FlightAware Transoceanic
Sun 02:04:00 AM 45.5134 -35.9624 81° East 504 580 36,000  Level FlightAware Transoceanic
Sun 02:05:00 AM 45.5354 -35.7587 81° East 504 580 36,000  Level FlightAware Transoceanic
Sun 02:06:00 AM 45.5569 -35.5549 81° East 504 580 36,000  Level FlightAware Transoceanic
Sun 02:07:00 AM 45.5781 -35.3508 82° East 504 580 36,000  Level FlightAware Transoceanic
Sun 02:08:00 AM 45.5989 -35.1467 82° East 504 580 36,000  Level FlightAware Transoceanic
Sun 02:09:00 AM 45.6194 -34.9423 82° East 504 580 36,000  Level FlightAware Transoceanic
Sun 02:10:00 AM 45.6395 -34.7379 82° East 504 580 36,000  Level FlightAware Transoceanic
Sun 02:11:00 AM 45.6592 -34.5332 82° East 504 580 36,000  Level FlightAware Transoceanic
Sun 02:12:00 AM 45.6786 -34.3285 82° East 504 580 36,000  Level FlightAware Transoceanic
Sun 02:13:00 AM 45.6976 -34.1236 83° East 504 580 36,000  Level FlightAware Transoceanic
Sun 02:14:00 AM 45.7162 -33.9185 83° East 504 580 36,000  Level FlightAware Transoceanic
Sun 02:15:00 AM 45.7345 -33.7134 83° East 504 580 36,000  Level FlightAware Transoceanic
Sun 02:16:00 AM 45.7524 -33.5081 83° East 504 580 36,000  Level FlightAware Transoceanic
Sun 02:17:00 AM 45.7699 -33.3026 83° East 504 580 36,000  Level FlightAware Transoceanic
Sun 02:18:00 AM 45.7871 -33.0971 83° East 504 580 36,000  Level FlightAware Transoceanic
Sun 02:19:00 AM 45.8038 -32.8914 83° East 504 580 36,000  Level FlightAware Transoceanic
Sun 02:20:00 AM 45.8203 -32.6856 84° East 504 580 36,000  Level FlightAware Transoceanic
Sun 02:21:00 AM 45.8363 -32.4796 84° East 504 580 36,000  Level FlightAware Transoceanic
Sun 02:22:00 AM 45.8520 -32.2736 84° East 504 580 36,000  Level FlightAware Transoceanic
Sun 02:23:00 AM 45.8673 -32.0674 84° East 504 580 36,000  Level FlightAware Transoceanic
Sun 02:24:00 AM 45.8823 -31.8611 84° East 504 580 36,000  Level FlightAware Transoceanic
Sun 02:25:00 AM 45.8968 -31.6547 84° East 504 580 36,000  Level FlightAware Transoceanic
Sun 02:26:00 AM 45.9110 -31.4482 84° East 504 580 36,000  Level FlightAware Transoceanic
Sun 02:27:00 AM 45.9249 -31.2416 85° East 504 580 36,000  Level FlightAware Transoceanic
Sun 02:28:00 AM 45.9383 -31.0349 85° East 504 580 36,000  Level FlightAware Transoceanic
Sun 02:29:00 AM 45.9514 -30.8281 85° East 504 580 36,000  Level FlightAware Transoceanic
Sun 02:30:00 AM 45.9641 -30.6212 85° East 504 580 36,000  Level FlightAware Transoceanic
Sun 02:31:00 AM 45.9765 -30.4142 85° East 504 580 36,000  Level FlightAware Transoceanic
Sun 02:32:00 AM 45.9884 -30.2072 85° East 504 580 36,000 10 Level FlightAware Transoceanic
Sun 02:33:00 AM 46.0469 -30.0384 63° Northeast  Level Estimated
Sun 02:34:00 AM 46.1048 -29.8705 64° Northeast  Level Estimated
Sun 02:35:00 AM 46.1624 -29.7022 64° Northeast  Level Estimated
Sun 02:36:00 AM 46.2197 -29.5336 64° Northeast  Level Estimated
Sun 02:37:00 AM 46.2768 -29.3646 64° Northeast  Level Estimated
Sun 02:38:00 AM 46.3337 -29.1953 64° Northeast  Level Estimated
Sun 02:39:00 AM 46.3903 -29.0257 64° Northeast  Level Estimated
Sun 02:40:00 AM 46.4466 -28.8556 64° Northeast  Level Estimated
Sun 02:41:00 AM 46.5027 -28.6853 64° Northeast  Level Estimated
Sun 02:42:00 AM 46.5586 -28.5145 65° Northeast  Level Estimated
Sun 02:43:00 AM 46.6141 -28.3435 65° Northeast  Level Estimated
Sun 02:44:00 AM 46.6695 -28.1721 65° Northeast  Level Estimated
Sun 02:45:00 AM 46.7245 -28.0003 65° Northeast  Level Estimated
Sun 02:46:00 AM 46.7794 -27.8282 65° Northeast  Level Estimated
Sun 02:47:00 AM 46.8339 -27.6557 65° Northeast  Level Estimated
Sun 02:48:00 AM 46.8882 -27.4829 65° Northeast  Level Estimated
Sun 02:49:00 AM 46.9423 -27.3097 65° Northeast  Level Estimated
Sun 02:50:00 AM 46.9962 -27.1358 66° East  Level Estimated
Sun 02:51:00 AM 47.0498 -26.9615 66° East  Level Estimated
Sun 02:52:00 AM 47.1032 -26.7868 66° East  Level Estimated
Sun 02:53:00 AM 47.1563 -26.6118 66° East  Level Estimated
Sun 02:54:00 AM 47.2092 -26.4365 66° East  Level Estimated
Sun 02:55:00 AM 47.2617 -26.2608 66° East  Level Estimated
Sun 02:56:00 AM 47.3141 -26.0847 66° East  Level Estimated
Sun 02:57:00 AM 47.3661 -25.9083 66° East  Level Estimated
Sun 02:58:00 AM 47.4179 -25.7316 67° East  Level Estimated
Sun 02:59:00 AM 47.4694 -25.5545 67° East  Level Estimated
Sun 03:00:00 AM 47.5206 -25.3771 67° East  Level Estimated
Sun 03:01:00 AM 47.5715 -25.1993 67° East  Level Estimated
Sun 03:02:00 AM 47.6222 -25.0212 67° East  Level Estimated
Sun 03:03:00 AM 47.6726 -24.8427 67° East  Level Estimated
Sun 03:04:00 AM 47.7227 -24.6639 67° East  Level Estimated
Sun 03:05:00 AM 47.7726 -24.4847 67° East  Level Estimated
Sun 03:06:00 AM 47.8221 -24.3052 68° East  Level Estimated
Sun 03:07:00 AM 47.8714 -24.1254 68° East  Level Estimated
Sun 03:08:00 AM 47.9204 -23.9452 68° East  Level Estimated
Sun 03:09:00 AM 47.9691 -23.7647 68° East  Level Estimated
Sun 03:10:00 AM 48.0176 -23.5838 68° East  Level Estimated
Sun 03:11:00 AM 48.0657 -23.4026 68° East  Level Estimated
Sun 03:12:00 AM 48.1136 -23.2211 68° East  Level Estimated
Sun 03:13:00 AM 48.1612 -23.0392 69° East  Level Estimated
Sun 03:14:00 AM 48.2085 -22.8570 69° East  Level Estimated
Sun 03:15:00 AM 48.2555 -22.6744 69° East  Level Estimated
Sun 03:16:00 AM 48.3022 -22.4915 69° East  Level Estimated
Sun 03:17:00 AM 48.3486 -22.3083 69° East  Level Estimated
Sun 03:18:00 AM 48.3947 -22.1248 69° East  Level Estimated
Sun 03:19:00 AM 48.4406 -21.9409 69° East  Level Estimated
Sun 03:20:00 AM 48.4861 -21.7567 69° East  Level Estimated
Sun 03:21:00 AM 48.5314 -21.5721 70° East  Level Estimated
Sun 03:22:00 AM 48.5763 -21.3872 70° East  Level Estimated
Sun 03:23:00 AM 48.6210 -21.2020 70° East  Level Estimated
Sun 03:24:00 AM 48.6653 -21.0165 70° East  Level Estimated
Sun 03:25:00 AM 48.7094 -20.8306 70° East  Level Estimated
Sun 03:26:00 AM 48.7532 -20.6445 70° East  Level Estimated
Sun 03:27:00 AM 48.7966 -20.4580 70° East  Level Estimated
Sun 03:28:00 AM 48.8398 -20.2711 71° East  Level Estimated
Sun 03:29:00 AM 48.8826 -20.0840 71° East  Level Estimated
Sun 03:30:00 AM 48.9252 -19.8965 71° East  Level Estimated
Sun 03:31:00 AM 48.9674 -19.7087 71° East  Level Estimated
Sun 03:32:00 AM 49.0094 -19.5206 71° East  Level Estimated
Sun 03:33:00 AM 49.0510 -19.3322 71° East  Level Estimated
Sun 03:34:00 AM 49.0924 -19.1435 71° East  Level Estimated
Sun 03:35:00 AM 49.1334 -18.9544 72° East  Level Estimated
Sun 03:36:00 AM 49.1741 -18.7651 72° East  Level Estimated
Sun 03:37:00 AM 49.2145 -18.5754 72° East  Level Estimated
Sun 03:38:00 AM 49.2546 -18.3854 72° East  Level Estimated
Sun 03:39:00 AM 49.2944 -18.1951 72° East  Level Estimated
Sun 03:40:00 AM 49.3339 -18.0045 72° East  Level Estimated
Sun 03:41:00 AM 49.3730 -17.8136 72° East  Level Estimated
Sun 03:42:00 AM 49.4119 -17.6224 73° East  Level Estimated
Sun 03:43:00 AM 49.4504 -17.4309 73° East  Level Estimated
Sun 03:44:00 AM 49.4886 -17.2391 73° East  Level Estimated
Sun 03:45:00 AM 49.5265 -17.0470 73° East  Level Estimated
Sun 03:46:00 AM 49.5641 -16.8546 73° East  Level Estimated
Sun 03:47:00 AM 49.6013 -16.6619 73° East  Level Estimated
Sun 03:48:00 AM 49.6383 -16.4690 73° East  Level Estimated
Sun 03:49:00 AM 49.6749 -16.2757 74° East  Level Estimated
Sun 03:50:00 AM 49.7112 -16.0821 74° East  Level Estimated
Sun 03:51:00 AM 49.7471 -15.8882 74° East  Level Estimated
Sun 03:52:00 AM 49.7828 -15.6941 74° East  Level Estimated
Sun 03:53:00 AM 49.8181 -15.4997 74° East  Level Estimated
Sun 03:54:00 AM 49.8531 -15.3050 74° East  Level Estimated
Sun 03:55:00 AM 49.8877 -15.1100 75° East  Level Estimated
Sun 03:56:00 AM 49.9221 -14.9147 75° East  Level Estimated
Sun 03:57:00 AM 49.9561 -14.7191 75° East  Level Estimated
Sun 03:58:00 AM 49.9898 -14.5233 75° East  Level Estimated
Sun 03:59:00 AM 50.0231 -14.3272 75° East  Level Estimated
Sun 04:00:00 AM 50.0561 -14.1309 75° East  Level Estimated
Sun 04:01:00 AM 50.0888 -13.9342 75° East  Level Estimated
Sun 04:02:00 AM 50.1212 -13.7373 76° East  Level Estimated
Sun 04:03:00 AM 50.1532 -13.5401 76° East  Level Estimated
Sun 04:04:00 AM 50.1849 -13.3427 76° East  Level Estimated
Sun 04:05:00 AM 50.2163 -13.1450 76° East  Level Estimated
Sun 04:06:00 AM 50.2473 -12.9471 76° East  Level Estimated
Sun 04:07:00 AM 50.2780 -12.7489 76° East  Level Estimated
Sun 04:08:00 AM 50.3083 -12.5504 76° East  Level Estimated
Sun 04:09:00 AM 50.3383 -12.3517 77° East  Level Estimated
Sun 04:09:42 AM 49.3040 -9.9460 77° East 484 557 37,000  Level FlightAware ADS-B
Sun 04:10:00 AM 50.3680 -12.1527 77° East  Level Estimated
Sun 04:10:35 AM 49.3380 -9.7910 71° East 484 557 37,000  Level FlightAware ADS-B
Sun 04:11:10 AM 49.3650 -9.6590 73° East 482 555 37,000  Level FlightAware ADS-B
Sun 04:11:54 AM 49.3950 -9.5160 72° East 481 554 37,000  Level FlightAware ADS-B
Sun 04:12:26 AM 49.4170 -9.4120 72° East 481 554 37,000  Level FlightAware ADS-B
Sun 04:13:02 AM 49.4420 -9.2950 72° East 479 551 37,000  Level FlightAware ADS-B
Sun 04:13:40 AM 49.4670 -9.1750 72° East 476 548 37,000  Level FlightAware ADS-B
Sun 04:14:13 AM 49.4880 -9.0700 73° East 469 540 37,000  Level FlightAware ADS-B
Sun 04:14:48 AM 49.5110 -8.9580 72° East 464 534 37,000  Level FlightAware ADS-B
Sun 04:15:24 AM 49.5340 -8.8460 72° East 460 529 37,000  Level FlightAware ADS-B
Sun 04:15:56 AM 49.5550 -8.7460 72° East 458 527 37,000  Level FlightAware ADS-B
Sun 04:16:33 AM 49.5770 -8.6360 73° East 458 527 37,000  Level FlightAware ADS-B
Sun 04:17:06 AM 49.5980 -8.5310 73° East 457 526 37,000  Level FlightAware ADS-B
Sun 04:17:41 AM 49.6200 -8.4240 72° East 457 526 37,000  Level FlightAware ADS-B
Sun 04:18:18 AM 49.6430 -8.3060 73° East 457 526 37,000  Level FlightAware ADS-B
Sun 04:18:54 AM 49.6650 -8.1980 72° East 457 526 37,000  Level FlightAware ADS-B
Sun 04:19:28 AM 49.6900 -8.0890 70° East 458 527 37,000  Level FlightAware ADS-B
Sun 04:20:00 AM 49.7110 -7.9910 72° East 457 526 37,000 -86 Level FlightAware ADS-B
Sun 04:20:38 AM 49.7369 -7.8707 72° East 458 527 36,900  Descending FlightAware UK
Sun 04:20:38 AM 49.7360 -7.8760 72° East 456 525 37,000 -600 Climbing FlightAware ADS-B
Sun 04:21:08 AM 49.7578 -7.7785 72° East 466 536 36,600 -833 Descending FlightAware UK
Sun 04:21:14 AM 49.7610 -7.7630 72° East 461 531 36,500 -947 Descending FlightAware ADS-B
Sun 04:21:46 AM 49.7820 -7.6620 72° East 454 522 36,000 -943 Descending FlightAware ADS-B
Sun 04:22:24 AM 49.8070 -7.5480 71° East 444 511 35,400 -857 Descending FlightAware ADS-B
Sun 04:22:56 AM 49.8270 -7.4510 72° East 438 504 35,000 -353 Descending FlightAware ADS-B
Sun 04:23:32 AM 49.8490 -7.3460 72° East 438 504 35,000  Level FlightAware ADS-B
Sun 04:24:02 AM 49.8690 -7.2540 72° East 440 506 35,000 -167 Level FlightAware ADS-B
Sun 04:24:08 AM 49.8705 -7.2325 72° East 462 532 34,900  Descending FlightAware UK
Sun 04:24:41 AM 49.8907 -7.1496 72° East 440 506 35,000 88 Climbing FlightAware ADS-B (EGCW)
Sun 04:25:16 AM 49.9150 -7.0320 72° East 439 505 35,000  Level FlightAware ADS-B
Sun 04:25:21 AM 49.9061 -7.0759 253° West 439 505 35,000  Level FlightAware ADS-B (EGCW)
Sun 04:25:52 AM 49.9370 -6.9250 72° East 438 504 35,000  Level FlightAware ADS-B
Sun 04:26:29 AM 49.9600 -6.8170 72° East 437 503 35,000  Level FlightAware ADS-B
Sun 04:27:05 AM 49.9820 -6.7100 72° East 436 502 35,000  Level FlightAware ADS-B
Sun 04:27:37 AM 50.0010 -6.6130 72° East 435 501 35,000  Level FlightAware ADS-B
Sun 04:27:39 AM 50.0026 -6.6063 72° East 462 532 35,000  Level FlightAware UK
Sun 04:28:09 AM 50.0207 -6.5171 72° East 462 532 35,000  Level FlightAware UK
Sun 04:28:12 AM 50.0220 -6.5090 72° East 435 501 35,000  Level FlightAware ADS-B
Sun 04:28:50 AM 50.0450 -6.3970 72° East 433 498 35,000  Level FlightAware ADS-B
Sun 04:29:09 AM 50.0561 -6.3425 72° East 433 498 35,000  Level FlightAware ADS-B (EGCW)
Sun 04:29:39 AM 50.0740 -6.2499 72° East 462 532 35,000  Level FlightAware UK
Sun 04:29:58 AM 50.0860 -6.1950 72° East 430 495 35,000  Level FlightAware ADS-B
Sun 04:30:34 AM 50.1070 -6.0880 73° East 429 494 35,000  Level FlightAware ADS-B
Sun 04:30:43 AM 50.0802 -6.2222 253° West 431 496 35,000  Level FlightAware ADS-B (EGCW)
Sun 04:31:39 AM 50.1441 -5.8962 253° West 460 529 35,000  Level FlightAware UK
Sun 04:31:42 AM 50.1460 -5.8870 253° West 430 495 35,000  Level FlightAware ADS-B
Sun 04:32:18 AM 50.1670 -5.7810 73° East 430 495 35,000  Level FlightAware ADS-B
Sun 04:32:33 AM 50.1756 -5.7379 73° East 431 496 35,000  Level FlightAware ADS-B (EGCW)
Sun 04:32:45 AM 50.1811 -5.7094 73° East 428 493 35,000  Level FlightAware ADS-B (EGDX / DGX)
Sun 04:33:15 AM 50.1996 -5.6112 73° East 462 532 35,000  Level FlightAware UK
Sun 04:33:40 AM 50.2141 -5.5388 73° East 430 495 35,000  Level FlightAware ADS-B (EGCW)
Sun 04:34:15 AM 50.2337 -5.4332 73° East 458 527 35,000  Level FlightAware UK
Sun 04:34:47 AM 50.2513 -5.3443 73° East 434 499 35,000  Level FlightAware ADS-B (EGCW)
Sun 04:35:21 AM 50.2714 -5.2362 73° East 462 532 35,000  Level FlightAware UK
Sun 04:35:28 AM 50.2756 -5.2161 73° East 434 499 35,000  Level FlightAware ADS-B (EGCW)
Sun 04:35:59 AM 50.2932 -5.1233 73° East 435 501 35,000  Level FlightAware ADS-B (EGCW)
Sun 04:36:41 AM 50.3091 -5.0380 74° East 435 501 35,000  Level FlightAware ADS-B (EGCW)
Sun 04:37:06 AM 50.3308 -4.9220 74° East 436 502 35,000  Level FlightAware ADS-B (EGCW)
Sun 04:37:36 AM 50.3481 -4.8293 74° East 433 498 35,000  Level FlightAware ADS-B (EGHH / BOH)
Sun 04:38:10 AM 50.3670 -4.7271 74° East 432 497 35,000  Level FlightAware ADS-B (EGHH / BOH)
Sun 04:38:40 AM 50.3838 -4.6357 74° East 434 499 35,000  Level FlightAware ADS-B (EGHH / BOH)
Sun 04:39:15 AM 50.4028 -4.5315 74° East 434 499 35,000  Level FlightAware ADS-B (EGCW)
Sun 04:39:46 AM 50.4192 -4.4410 74° East 435 501 35,000  Level FlightAware ADS-B (EGCW)
Sun 04:40:21 AM 50.4391 -4.3313 74° East 434 499 35,000  Level FlightAware ADS-B (EGHH / BOH)
Sun 04:40:51 AM 50.4553 -4.2414 74° East 434 499 35,000  Level FlightAware ADS-B (EGHH / BOH)
Sun 04:41:22 AM 50.4710 -4.1534 74° East 433 498 35,000 -295 Level FlightAware ADS-B (EGCW)
Sun 04:41:52 AM 50.4883 -4.0563 74° East 425 489 34,700 -766 Descending FlightAware ADS-B (EGCW)
Sun 04:42:09 AM 50.4542 -4.2474 254° West 424 488 34,400 -1,038 Descending FlightAware ADS-B (EGDX / DGX)
Sun 04:42:44 AM 50.5145 -3.9080 74° East 418 481 33,800 -1,083 Descending FlightAware ADS-B (EGCW)
Sun 04:43:21 AM 50.5335 -3.8003 74° East 414 476 33,100 -985 Descending FlightAware ADS-B (EGCW)
Sun 04:43:51 AM 50.5491 -3.7101 75° East 409 471 32,700 -900 Descending FlightAware ADS-B (EGHH / BOH)
Sun 04:44:01 AM 50.5542 -3.6814 75° East 408 470 32,500 -1,000 Descending FlightAware ADS-B
Sun 04:44:09 AM 50.5580 -3.6590 75° East 408 470 32,400 -960 Descending FlightAware ADS-B
Sun 04:44:26 AM 50.5309 -3.8150 255° West 408 470 32,100 -1,034 Descending FlightAware ADS-B (EGDX / DGX)
Sun 04:44:38 AM 50.5722 -3.5771 75° East 405 466 31,900 -1,000 Descending FlightAware ADS-B (EGHH / BOH)
Sun 04:44:44 AM 50.5755 -3.5581 75° East 404 465 31,800 -750 Descending FlightAware ADS-B
Sun 04:44:54 AM 50.5800 -3.5320 75° East 403 464 31,700 -828 Descending FlightAware ADS-B
Sun 04:45:13 AM 50.5894 -3.4774 75° East 401 461 31,400 -1,000 Descending FlightAware ADS-B
Sun 04:45:18 AM 50.5921 -3.4618 75° East 401 461 31,300 -1,059 Descending FlightAware ADS-B
Sun 04:45:47 AM 50.6061 -3.3803 75° East 399 459 30,800 -894 Descending FlightAware ADS-B
Sun 04:46:05 AM 50.6146 -3.3305 75° East 398 458 30,600 -960 Descending FlightAware ADS-B
Sun 04:46:12 AM 50.6179 -3.3114 75° East 400 460 30,400 -1,077 Descending FlightAware ADS-B (EGCW)
Sun 04:46:44 AM 50.6323 -3.2263 75° East 397 457 29,900 -938 Descending FlightAware ADS-B (EGCW)
Sun 04:47:16 AM 50.6480 -3.1331 75° East 395 455 29,400 -938 Descending FlightAware ADS-B
Sun 04:47:48 AM 50.6589 -3.0686 75° East 394 453 28,900 -968 Descending FlightAware ADS-B (EGDX / DGX)
Sun 04:48:18 AM 50.6767 -2.9618 75° East 391 450 28,400 -871 Descending FlightAware ADS-B (EGDX / DGX)
Sun 04:48:50 AM 50.6912 -2.8748 75° East 389 448 28,000 -833 Descending FlightAware ADS-B
Sun 04:48:54 AM 50.6912 -2.8748 75° East 389 448 27,900 -706 Descending FlightAware ADS-B (EGDX / DGX)
Sun 04:49:24 AM 50.7063 -2.7837 75° East 374 430 27,600 -811 Descending FlightAware ADS-B (EGDM)
Sun 04:49:31 AM 50.6969 -2.8406 255° West 374 430 27,400 -720 Descending FlightAware ADS-B (EGDX / DGX)
Sun 04:49:49 AM 50.7169 -2.7196 75° East 363 418 27,300 -750 Descending FlightAware ADS-B (EGHH / BOH)
Sun 04:50:03 AM 50.7228 -2.6835 75° East 361 415 27,000 -529 Descending FlightAware ADS-B (EGDM)
Sun 04:50:23 AM 50.7311 -2.6323 76° East 360 414 27,000 -200 Level FlightAware ADS-B
Sun 04:50:33 AM 50.7355 -2.6052 76° East 358 412 26,900 -750 Descending FlightAware ADS-B
Sun 04:50:55 AM 50.7440 -2.5505 76° East 357 411 26,600 -938 Descending FlightAware ADS-B (EGHH / BOH)
Sun 04:51:05 AM 50.7454 -2.5234 85° East 356 410 26,400 -947 Descending FlightAware ADS-B
Sun 04:51:14 AM 50.7445 -2.5003 94° East 354 407 26,300 -1,200 Descending FlightAware ADS-B
Sun 04:51:20 AM 50.7430 -2.4854 99° East 354 407 26,100 -1,636 Descending FlightAware ADS-B (EGDM)
Sun 04:51:25 AM 50.7341 -2.6140 264° West 360 414 26,000 -462 Descending FlightAware ADS-B
Sun 04:51:33 AM 50.7384 -2.4585 87° East 353 406 26,000 -500 Level FlightAware ADS-B (EGDM)
Sun 04:51:37 AM 50.7341 -2.6140 268° West 360 414 25,900 -800 Descending FlightAware ADS-B
Sun 04:51:48 AM 50.7306 -2.4160 92° East 353 406 25,800 -828 Descending FlightAware ADS-B
Sun 04:52:06 AM 50.7224 -2.3719 106° East 352 405 25,500 -960 Descending FlightAware ADS-B
Sun 04:52:38 AM 50.7072 -2.2934 107° East 349 402 25,000 -968 Descending FlightAware ADS-B (EGHH / BOH)
Sun 04:53:08 AM 50.6933 -2.2210 107° East 346 398 24,500 -1,238 Descending FlightAware ADS-B (EGHH / BOH)
Sun 04:53:41 AM 50.6783 -2.1419 107° East 341 392 23,700 -1,500 Descending FlightAware ADS-B (EGDM)
Sun 04:54:12 AM 50.6646 -2.0703 107° East 338 389 22,900 -1,548 Descending FlightAware ADS-B
Sun 04:54:43 AM 50.6504 -1.9965 107° East 335 386 22,100 -1,452 Descending FlightAware ADS-B (EGHH / BOH)
Sun 04:55:14 AM 50.6367 -1.9253 107° East 333 383 21,400 -1,421 Descending FlightAware ADS-B (EGDM)
Sun 04:55:59 AM 50.6168 -1.8230 107° East 331 381 20,300 -1,462 Descending FlightAware ADS-B (LSXS)
Sun 04:56:32 AM 50.6021 -1.7479 107° East 323 372 19,500 -1,535 Descending FlightAware ADS-B (LSXS)
Sun 04:56:42 AM 50.5979 -1.7258 107° East 323 372 19,200 -1,667 Descending FlightAware ADS-B (EGDM)
Sun 04:56:50 AM 50.5942 -1.7067 107° East 320 368 19,000 -1,350 Descending FlightAware ADS-B (EGDM)
Sun 04:57:22 AM 50.5815 -1.6357 106° East 320 368 18,300 -1,350 Descending FlightAware ADS-B (EGDM)
Sun 04:57:30 AM 50.5810 -1.6188 93° East 317 365 18,100 -1,263 Descending FlightAware ADS-B (EGHH / BOH)
Sun 04:57:41 AM 50.5815 -1.6357 273° West 320 368 17,900 -783 Descending FlightAware ADS-B (EGDM)
Sun 04:57:53 AM 50.5891 -1.5679 80° East 315 362 17,800 -667 Descending FlightAware ADS-B
Sun 04:57:59 AM 50.5929 -1.5555 65° Northeast 312 359 17,700 -789 Descending FlightAware ADS-B
Sun 04:58:31 AM 50.6141 -1.4892 63° Northeast 314 361 17,300 -750 Descending FlightAware ADS-B (EGHH / BOH)
Sun 04:59:03 AM 50.6348 -1.4263 63° Northeast 301 346 16,900 -716 Descending FlightAware ADS-B (EGHH / BOH)
Sun 04:59:38 AM 50.6576 -1.3570 63° Northeast 301 346 16,500 -667 Descending FlightAware ADS-B (EGDM)
Sun 04:59:48 AM 50.6659 -1.3400 53° Northeast 303 349 16,400 -818 Descending FlightAware ADS-B (EGDM)
Sun 05:00:00 AM 50.6764 -1.3248 42° Northeast 307 353 16,200 -714 Descending FlightAware ADS-B (EGDM)
Sun 05:00:30 AM 50.7144 -1.2844 34° Northeast 308 354 15,900 -762 Descending FlightAware ADS-B (EGDM)
Sun 05:01:03 AM 50.7526 -1.2460 32° Northeast 308 354 15,400 -1,048 Descending FlightAware ADS-B (EGDM)
Sun 05:01:33 AM 50.7840 -1.2138 33° Northeast 304 350 14,800 -1,200 Descending FlightAware ADS-B (EGDM)
Sun 05:01:38 AM 50.7936 -1.2009 40° Northeast 296 341 14,700 -818 Descending FlightAware ADS-B (EGHH / BOH)
Sun 05:01:55 AM 50.8083 -1.1724 51° Northeast 292 336 14,500 -720 Descending FlightAware ADS-B
Sun 05:02:28 AM 50.8331 -1.1189 54° Northeast 275 316 14,100 -818 Descending FlightAware ADS-B (EGDM)
Sun 05:03:01 AM 50.8583 -1.0648 54° Northeast 269 310 13,600 -952 Descending FlightAware ADS-B (LSXS)
Sun 05:03:31 AM 50.8794 -1.0191 54° Northeast 266 306 13,100 -900 Descending FlightAware ADS-B (EGDM)
Sun 05:03:41 AM 50.8875 -1.0015 54° Northeast 260 299 13,000 -146 Descending FlightAware ADS-B
Sun 05:04:12 AM 50.9100 -0.9525 54° Northeast 269 310 13,000  Level FlightAware ADS-B (EGDM)
Sun 05:04:16 AM 50.9130 -0.9460 54° Northeast 270 311 13,000  Level FlightAware ADS-B (EGDM)
Sun 05:04:48 AM 50.9360 -0.8963 54° Northeast 270 311 13,000  Level FlightAware ADS-B (LSXS)
Sun 05:05:07 AM 50.9505 -0.8668 52° Northeast 270 311 13,000  Level FlightAware ADS-B (EGDM)
Sun 05:05:37 AM 50.9796 -0.8278 40° Northeast 269 310 13,000  Level FlightAware ADS-B (EGHH / BOH)
Sun 05:05:55 AM 50.9976 -0.8061 37° Northeast 275 316 13,000  Level FlightAware ADS-B (EGDM)
Sun 05:06:05 AM 51.0090 -0.7926 37° Northeast 275 316 13,000  Level FlightAware ADS-B (EGDM)
Sun 05:06:26 AM 51.0299 -0.7682 36° Northeast 270 311 13,000  Level FlightAware ADS-B (LSXS)
Sun 05:06:36 AM 51.0398 -0.7566 36° Northeast 269 310 13,000 -300 Level FlightAware ADS-B (LSXS)
Sun 05:07:06 AM 51.0703 -0.7212 36° Northeast 278 320 12,800 -700 Descending FlightAware ADS-B (LSXS)
Sun 05:07:36 AM 51.1022 -0.6843 36° Northeast 277 319 12,300 -1,102 Descending FlightAware ADS-B (LSXS)
Sun 05:07:55 AM 51.1169 -0.6672 36° Northeast 275 316 11,900 -1,071 Descending FlightAware ADS-B (EGDM)
Sun 05:08:04 AM 51.1307 -0.6512 36° Northeast 268 308 11,800 -923 Descending FlightAware ADS-B (LSXS)
Sun 05:08:34 AM 51.1554 -0.6224 36° Northeast 273 314 11,300 -774 Descending FlightAware ADS-B (EGDM)
Sun 05:09:06 AM 51.1938 -0.5776 36° Northeast 266 306 11,000 -290 Descending FlightAware ADS-B (LSXS)
Sun 05:09:36 AM 51.2231 -0.5432 36° Northeast 260 299 11,000  Level FlightAware ADS-B (LSXS)
Sun 05:09:53 AM 51.2406 -0.5228 36° Northeast 268 308 11,000  Level FlightAware ADS-B
Sun 05:10:07 AM 51.2518 -0.5098 36° Northeast 267 307 11,000  Level FlightAware ADS-B
Sun 05:10:27 AM 51.2744 -0.4831 36° Northeast 269 310 11,000  Level FlightAware ADS-B (EGDM)
Sun 05:11:20 AM 51.3130 -0.4380 36° Northeast 264 304 11,000  Level FlightAware ADS-B
Sun 05:11:23 AM 51.3309 -0.4166 36° Northeast 274 315 11,000  Level FlightAware UK
Sun 05:11:30 AM 51.3362 -0.4071 40° Northeast 262 302 11,000  Level FlightAware ADS-B (LSXS)
Sun 05:11:39 AM 51.3414 -0.3908 63° Northeast 271 312 11,000  Level FlightAware ADS-B
Sun 05:11:50 AM 51.3436 -0.3710 80° East 257 296 11,000  Level FlightAware ADS-B (LSXS)
Sun 05:11:56 AM 51.3414 -0.3908 260° West 271 312 11,000  Level FlightAware ADS-B
Sun 05:12:00 AM 51.3426 -0.3526 87° East 254 292 11,000  Level FlightAware ADS-B (LSXS)
Sun 05:12:11 AM 51.3378 -0.3337 112° Southeast 255 293 11,000  Level FlightAware ADS-B
Sun 05:12:20 AM 51.3311 -0.3200 128° Southeast 248 285 11,000  Level FlightAware ADS-B (LSXS)
Sun 05:12:29 AM 51.3258 -0.3130 140° Southeast 255 293 11,000  Level FlightAware ADS-B
Sun 05:12:40 AM 51.3154 -0.3028 149° Southeast 257 296 11,000  Level FlightAware ADS-B
Sun 05:12:44 AM 51.3138 -0.3012 148° Southeast 255 293 11,000  Level FlightAware ADS-B
Sun 05:12:47 AM 51.3154 -0.3028 328° Northwest 256 295 11,000  Level FlightAware ADS-B
Sun 05:13:11 AM 51.2816 -0.2673 147° Southeast 255 293 11,000  Level FlightAware ADS-B
Sun 05:13:29 AM 51.2601 -0.2574 164° South 256 295 11,000  Level FlightAware ADS-B (LSXS)
Sun 05:13:39 AM 51.2478 -0.2602 188° South 262 302 11,000  Level FlightAware ADS-B (LSXS)
Sun 05:13:49 AM 51.2364 -0.2680 203° Southwest 277 319 11,000  Level FlightAware ADS-B (LSXS)
Sun 05:13:54 AM 51.3138 -0.3012 345° North 257 296 11,000  Level FlightAware ADS-B
Sun 05:13:59 AM 51.2266 -0.2809 172° South 278 320 11,000  Level FlightAware ADS-B (LSXS)
Sun 05:14:09 AM 51.2196 -0.2977 237° Southwest 289 333 11,000  Level FlightAware ADS-B (LSXS)
Sun 05:14:19 AM 51.2161 -0.3192 255° West 292 336 11,000  Level FlightAware ADS-B (LSXS)
Sun 05:14:29 AM 51.2169 -0.3410 273° West 295 339 11,000  Level FlightAware ADS-B (LSXS)
Sun 05:14:33 AM 51.2172 -0.3090 89° East 296 341 11,000  Level FlightAware ADS-B (EGDM)
Sun 05:14:39 AM 51.2221 -0.3612 279° West 292 336 11,000  Level FlightAware ADS-B (LSXS)
Sun 05:14:49 AM 51.2306 -0.3772 310° West 294 338 11,000  Level FlightAware ADS-B (LSXS)
Sun 05:14:53 AM 51.2224 -0.3622 131° Southeast 296 341 11,000  Level FlightAware ADS-B (EGDM)
Sun 05:14:58 AM 51.2410 -0.3887 318° Northwest 292 336 11,000 -750 Level FlightAware ADS-B (LSXS)
Sun 05:15:09 AM 51.2530 -0.4004 329° Northwest 290 334 10,800 -1,714 Descending FlightAware ADS-B (LSXS)
Sun 05:15:12 AM 51.2224 -0.3622 142° Southeast 296 341 10,600 -1,200 Descending FlightAware ADS-B (EGDM)
Sun 05:15:19 AM 51.2655 -0.4121 324° Northwest 295 339 10,600 -545 Level FlightAware ADS-B (LSXS)
Sun 05:15:23 AM 51.2439 -0.3916 149° Southeast 294 338 10,500 -1,059 Descending FlightAware ADS-B
Sun 05:15:53 AM 51.3053 -0.4478 330° Northwest 281 323 10,000 -1,091 Descending FlightAware ADS-B (LSXS)
Sun 05:15:56 AM 51.2624 -0.4092 151° Southeast 284 327 9,900 -947 Descending FlightAware ADS-B
Sun 05:16:12 AM 51.3287 -0.4562 336° Northwest 276 318 9,700 -889 Descending FlightAware ADS-B (LSXS)
Sun 05:16:23 AM 51.3425 -0.4504 15° North 264 304 9,500 -1,143 Descending FlightAware ADS-B
Sun 05:16:33 AM 51.3520 -0.4406 33° Northeast 258 297 9,300 -1,263 Descending FlightAware ADS-B (LSXS)
Sun 05:16:42 AM 51.3591 -0.4276 49° Northeast 248 285 9,100 -900 Descending FlightAware ADS-B (LSXS)
Sun 05:16:53 AM 51.3643 -0.4101 65° Northeast 248 285 9,000 -286 Descending FlightAware ADS-B (LSXS)
Sun 05:17:03 AM 51.3661 -0.3911 81° East 250 288 9,000  Level FlightAware ADS-B (LSXS)
Sun 05:17:13 AM 51.3646 -0.3731 97° East 250 288 9,000  Level FlightAware ADS-B (LSXS)
Sun 05:17:23 AM 51.3599 -0.3559 114° Southeast 247 284 9,000  Level FlightAware ADS-B (LSXS)
Sun 05:17:26 AM 51.3580 -0.3514 124° Southeast 251 289 9,000  Level FlightAware ADS-B
Sun 05:17:33 AM 51.3522 -0.3414 133° Southeast 253 291 9,000  Level FlightAware ADS-B (LSXS)
Sun 05:17:43 AM 51.3428 -0.3309 145° Southeast 250 288 9,000  Level FlightAware ADS-B (LSXS)
Sun 05:18:28 AM 51.2980 -0.2850 147° Southeast 251 289 9,000  Level FlightAware ADS-B
Sun 05:18:48 AM 51.2800 -0.2680 149° Southeast 259 298 9,000  Level FlightAware ADS-B
Sun 05:19:03 AM 51.2600 -0.2610 168° South 258 297 9,000  Level FlightAware ADS-B
Sun 05:19:17 AM 51.2421 -0.2682 194° South 274 315 9,000  Level FlightAware ADS-B
Sun 05:19:24 AM 51.2338 -0.2761 211° Southwest 276 318 9,000  Level FlightAware ADS-B
Sun 05:19:57 AM 51.2184 -0.3369 248° West 285 328 9,000  Level FlightAware ADS-B
Sun 05:20:07 AM 51.2222 -0.3567 287° West 284 327 9,000  Level FlightAware ADS-B
Sun 05:20:29 AM 51.2410 -0.3873 315° West 269 310 9,000  Level FlightAware ADS-B (LSXS)
Sun 05:20:40 AM 51.2292 -0.3728 142° Southeast 284 327 9,000  Level FlightAware ADS-B
Sun 05:20:49 AM 51.2627 -0.4081 327° Northwest 270 311 9,000  Level FlightAware ADS-B (LSXS)
Sun 05:21:09 AM 51.2852 -0.4292 330° Northwest 268 308 9,000  Level FlightAware ADS-B (LSXS)
Sun 05:21:41 AM 51.3217 -0.4559 335° Northwest 264 304 9,000  Level FlightAware ADS-B (LSXS)
Sun 05:22:14 AM 51.3540 -0.4340 23° Northeast 256 295 9,000  Level FlightAware ADS-B
Sun 05:22:34 AM 51.3630 -0.3980 68° East 249 287 9,000  Level FlightAware ADS-B
Sun 05:22:53 AM 51.3569 -0.3613 105° East 247 284 9,000  Level FlightAware ADS-B (LSXS)
Sun 05:23:03 AM 51.3116 -0.4524 232° Southwest 256 295 9,000  Level FlightAware ADS-B
Sun 05:23:08 AM 51.3487 -0.3464 61° Northeast 253 291 9,000  Level FlightAware ADS-B
Sun 05:23:15 AM 51.3377 -0.3351 147° Southeast 258 297 9,000  Level FlightAware ADS-B
Sun 05:23:33 AM 51.3164 -0.3262 165° South 259 298 9,000  Level FlightAware ADS-B (LSXS)
Sun 05:23:39 AM 51.3487 -0.3464 339° North 273 314 9,000  Level FlightAware ADS-B
Sun 05:23:48 AM 51.2996 -0.3366 173° South 277 319 9,000  Level FlightAware ADS-B
Sun 05:24:10 AM 51.3487 -0.3464 353° North 286 329 9,000 -197 Level FlightAware ADS-B
Sun 05:24:49 AM 51.3020 -0.4490 234° Southwest 280 322 8,800 -273 Descending FlightAware ADS-B
Sun 05:24:54 AM 51.3030 -0.4590 279° West 279 321 8,800 -720 Level FlightAware ADS-B
Sun 05:25:14 AM 51.3060 -0.5000 277° West 275 316 8,500 -1,050 Descending FlightAware ADS-B
Sun 05:25:34 AM 51.3090 -0.5400 277° West 271 312 8,100 -750 Descending FlightAware ADS-B
Sun 05:25:54 AM 51.3037 -0.4677 97° East 281 323 8,000 -261 Descending FlightAware ADS-B
Sun 05:26:20 AM 51.3161 -0.6342 277° West 271 312 7,900 -391 Descending FlightAware ADS-B
Sun 05:26:40 AM 51.3182 -0.6642 276° West 269 310 7,700 -689 Descending FlightAware ADS-B (LSXS)
Sun 05:27:21 AM 51.3312 -0.7505 284° West 255 293 7,200 -750 Descending FlightAware ADS-B (LSXS)
Sun 05:27:36 AM 51.3407 -0.7729 304° West 259 298 7,000 -800 Descending FlightAware ADS-B (EGDM)
Sun 05:27:51 AM 51.3513 -0.7970 305° West 259 298 6,800 -686 Descending FlightAware ADS-B (LSXS)
Sun 05:28:11 AM 51.3652 -0.8281 306° West 255 293 6,600 -682 Descending FlightAware ADS-B (LSXS)
Sun 05:28:35 AM 51.3813 -0.8637 306° West 229 264 6,300 -750 Descending FlightAware ADS-B (LSXS)
Sun 05:28:51 AM 51.3945 -0.8790 324° Northwest 214 246 6,100 -692 Descending FlightAware ADS-B (LSXS)
Sun 05:29:01 AM 51.4042 -0.8824 348° North 213 245 6,000 -545 Descending FlightAware ADS-B (LSXS)
Sun 05:29:35 AM 51.4348 -0.8781 North 185 213 5,700 -706 Descending FlightAware ADS-B (LSXS)
Sun 05:30:09 AM 51.4520 -0.8420 53° Northeast 179 206 5,200 -1,138 Descending FlightAware ADS-B
Sun 05:30:33 AM 51.4642 -0.8141 55° Northeast 181 208 4,600 -1,400 Descending FlightAware ADS-B
Sun 05:31:09 AM 51.4760 -0.7730 65° Northeast 178 205 3,800 -1,182 Descending FlightAware ADS-B
Sun 05:31:39 AM 51.4760 -0.7350 90° East 176 203 3,300 -824 Descending FlightAware ADS-B
Sun 05:32:00 AM 51.4760 -0.7090 90° East 173 199 3,100 -857 Descending FlightAware ADS-B
Sun 05:32:14 AM 51.4770 -0.6930 84° East 163 188 2,800 -882 Descending FlightAware ADS-B
Sun 05:32:34 AM 51.4770 -0.6680 90° East 144 166 2,600 -720 Descending FlightAware ADS-B
Sun 05:33:04 AM 51.4770 -0.6380 90° East 143 165 2,200 -750 Descending FlightAware ADS-B
Sun 05:33:30 AM 51.4770 -0.6120 90° East 142 163 1,900 -857 Descending FlightAware ADS-B
Sun 05:33:53 AM 51.4770 -0.5850 90° East 147 169 1,500 -923 Descending FlightAware ADS-B
Sun 05:34:09 AM 51.4770 -0.5670 90° East 146 168 1,300 -732 Descending FlightAware ADS-B
Sun 05:34:34 AM 51.4770 -0.5420 90° East 140 161 1,000 -682 Descending FlightAware ADS-B
Sun 05:34:53 AM 51.4770 -0.5220 90° East 141 162 800 -873 Descending FlightAware ADS-B
Sun 05:35:29 AM 51.4775 -0.4801 90° East 150 173 200 -923 Descending FlightAware UK
Sun 05:35:32 AM 51.4780 -0.4810 90° East 139 160 200  Level FlightAware ADS-B

Login

Don't have an account? Register now (free) for customized features, flight alerts, and more!